createdAt,value
2023-02-02T00:01:25.150Z,8.13
2023-02-02T00:03:52.936Z,7.93
2023-02-02T00:06:22.045Z,7.65
2023-02-02T00:08:49.743Z,7.03
2023-02-02T00:11:18.198Z,7.30
2023-02-02T00:13:46.264Z,7.30
2023-02-02T00:16:28.837Z,7.07
2023-02-02T00:19:01.935Z,5.60
2023-02-02T00:21:29.909Z,5.35
2023-02-02T00:23:57.298Z,4.90
2023-02-02T00:26:25.169Z,5.85
2023-02-02T00:28:53.739Z,5.68
2023-02-02T00:31:22.204Z,5.82
2023-02-02T00:33:50.866Z,5.80
2023-02-02T00:36:19.561Z,5.95
2023-02-02T00:38:48.241Z,6.47
2023-02-02T00:41:16.394Z,7.55
2023-02-02T00:43:43.824Z,7.40
2023-02-02T00:46:15.610Z,7.05
2023-02-02T00:48:42.936Z,7.20
2023-02-02T00:51:11.063Z,7.22
2023-02-02T00:53:38.337Z,6.75
2023-02-02T00:56:05.831Z,6.47
2023-02-02T00:58:32.968Z,5.80
2023-02-02T01:01:00.744Z,7.13
2023-02-02T01:03:29.649Z,5.72
2023-02-02T01:05:56.829Z,5.82
2023-02-02T01:08:24.051Z,5.90
2023-02-02T01:10:52.139Z,6.07
2023-02-02T01:16:26.348Z,5.78
2023-02-02T01:18:53.918Z,5.53
2023-02-02T01:21:21.623Z,5.55
2023-02-02T01:23:49.210Z,6.05
2023-02-02T01:26:17.128Z,6.10
2023-02-02T01:28:44.655Z,5.60
2023-02-02T01:31:18.767Z,5.50
2023-02-02T01:33:47.510Z,5.70
2023-02-02T01:36:18.343Z,6.00
2023-02-02T01:38:45.999Z,6.22
2023-02-02T01:41:17.043Z,5.68
2023-02-02T01:43:47.277Z,7.22
2023-02-02T01:46:15.637Z,5.50
2023-02-02T01:48:47.368Z,6.28
2023-02-02T01:51:20.027Z,6.43
2023-02-02T01:53:50.008Z,7.38
2023-02-02T01:56:33.366Z,7.13
2023-02-02T01:59:01.734Z,7.57
2023-02-02T02:01:30.980Z,7.85
2023-02-02T02:03:59.067Z,7.10
2023-02-02T02:06:28.224Z,7.15
2023-02-02T02:09:06.529Z,6.28
2023-02-02T02:11:35.892Z,5.95
2023-02-02T02:14:25.530Z,5.82
2023-02-02T02:16:55.874Z,6.15
2023-02-02T02:20:02.416Z,5.82
2023-02-02T02:23:07.516Z,5.63
2023-02-02T02:26:07.672Z,4.65
2023-02-02T02:28:38.123Z,4.35
2023-02-02T02:31:20.029Z,5.78
2023-02-02T02:34:21.292Z,5.40
2023-02-02T02:37:03.415Z,5.78
2023-02-02T02:39:39.607Z,5.13
2023-02-02T02:42:17.614Z,5.15
2023-02-02T02:44:47.542Z,5.05
2023-02-02T02:47:15.403Z,5.70
2023-02-02T02:49:44.407Z,4.63
2023-02-02T02:52:12.669Z,5.57
2023-02-02T02:54:54.169Z,5.25
2023-02-02T02:57:27.596Z,4.68
2023-02-02T03:00:05.398Z,4.97
2023-02-02T03:02:58.370Z,6.43
2023-02-02T03:05:47.617Z,6.18
2023-02-02T03:08:33.758Z,6.43
2023-02-02T03:11:02.961Z,5.85
2023-02-02T03:13:32.194Z,6.22
2023-02-02T03:16:00.336Z,6.50
2023-02-02T03:18:30.619Z,6.53
2023-02-02T03:21:00.825Z,5.82
2023-02-02T03:23:28.223Z,6.88
2023-02-02T03:25:56.097Z,6.47
2023-02-02T03:28:25.020Z,6.13
2023-02-02T03:30:53.950Z,7.30
2023-02-02T03:33:21.842Z,6.95
2023-02-02T03:35:49.383Z,7.15
2023-02-02T03:38:16.725Z,7.25
2023-02-02T03:40:43.935Z,7.05
2023-02-02T03:43:11.577Z,7.20
2023-02-02T03:45:41.052Z,6.63
2023-02-02T03:48:08.377Z,6.88
2023-02-02T03:50:36.074Z,6.10
2023-02-02T03:53:03.401Z,6.18
2023-02-02T03:55:30.823Z,6.90
2023-02-02T03:57:58.188Z,7.05
2023-02-02T04:00:25.620Z,6.60
2023-02-02T04:02:54.873Z,6.93
2023-02-02T04:05:22.574Z,7.18
2023-02-02T04:07:50.061Z,7.00
2023-02-02T04:10:18.401Z,7.72
2023-02-02T04:12:45.540Z,7.20
2023-02-02T04:15:13.155Z,6.45
2023-02-02T04:17:40.504Z,7.28
2023-02-02T04:20:08.439Z,7.75
2023-02-02T04:22:35.728Z,7.05
2023-02-02T04:25:02.866Z,7.65
2023-02-02T04:27:33.163Z,6.88
2023-02-02T04:30:00.906Z,6.90
2023-02-02T04:32:28.203Z,7.05
2023-02-02T04:34:55.425Z,7.30
2023-02-02T04:37:22.719Z,7.38
2023-02-02T04:39:51.023Z,6.68
2023-02-02T04:42:18.293Z,7.90
2023-02-02T04:44:46.388Z,6.93
2023-02-02T04:47:13.687Z,7.95
2023-02-02T04:49:40.781Z,6.95
2023-02-02T04:52:08.276Z,6.63
2023-02-02T04:54:39.812Z,6.20
2023-02-02T04:57:09.150Z,6.57
2023-02-02T04:59:36.980Z,6.18
2023-02-02T05:02:04.295Z,6.20
2023-02-02T05:04:31.427Z,6.00
2023-02-02T05:06:58.768Z,6.80
2023-02-02T05:09:26.297Z,7.10
2023-02-02T05:11:54.133Z,6.72
2023-02-02T05:14:21.550Z,6.78
2023-02-02T05:16:50.435Z,6.10
2023-02-02T05:19:18.873Z,6.95
2023-02-02T05:21:50.799Z,6.65
2023-02-02T05:24:18.699Z,6.72
2023-02-02T05:26:46.706Z,5.93
2023-02-02T05:29:14.022Z,6.65
2023-02-02T05:31:41.375Z,7.70
2023-02-02T05:34:11.795Z,6.72
2023-02-02T05:36:38.883Z,7.30
2023-02-02T05:39:06.291Z,7.60
2023-02-02T05:41:34.133Z,7.03
2023-02-02T05:44:02.274Z,6.75
2023-02-02T05:46:30.239Z,6.65
2023-02-02T05:49:05.595Z,6.35
2023-02-02T05:51:38.027Z,7.15
2023-02-02T05:54:05.707Z,6.63
2023-02-02T05:56:33.096Z,7.00
2023-02-02T05:59:01.223Z,6.93
2023-02-02T06:01:28.913Z,6.38
2023-02-02T06:03:59.092Z,6.65
2023-02-02T06:06:26.482Z,8.05
2023-02-02T06:08:53.991Z,6.75
2023-02-02T06:11:21.269Z,7.28
2023-02-02T06:13:48.579Z,7.53
2023-02-02T06:16:17.341Z,7.10
2023-02-02T06:18:48.887Z,7.53
2023-02-02T06:21:16.768Z,6.50
2023-02-02T06:23:46.169Z,6.22
2023-02-02T06:26:15.146Z,8.05
2023-02-02T06:28:42.972Z,8.77
2023-02-02T06:31:12.080Z,12.27
2023-02-02T06:33:39.501Z,16.00
2023-02-02T06:36:10.469Z,13.10
2023-02-02T06:38:37.783Z,12.82
2023-02-02T06:41:05.240Z,11.07
2023-02-02T06:43:32.477Z,10.90
2023-02-02T06:45:59.902Z,9.00
2023-02-02T06:48:28.112Z,9.65
2023-02-02T06:50:59.812Z,9.65
2023-02-02T06:53:27.782Z,9.23
2023-02-02T06:55:55.515Z,9.68
2023-02-02T06:58:23.342Z,8.55
2023-02-02T07:00:50.597Z,8.82
2023-02-02T07:03:20.876Z,8.27
2023-02-02T07:05:51.196Z,7.72
2023-02-02T07:08:18.886Z,8.68
2023-02-02T07:11:11.111Z,11.07
2023-02-02T07:13:33.606Z,10.82
2023-02-02T07:16:01.083Z,10.85
2023-02-02T07:18:28.293Z,10.00
2023-02-02T07:20:58.648Z,10.73
2023-02-02T07:23:25.997Z,10.07
2023-02-02T07:26:07.924Z,9.90
2023-02-02T07:28:36.166Z,9.18
2023-02-02T07:31:23.448Z,7.85
2023-02-02T07:33:52.126Z,8.30
2023-02-02T07:36:21.611Z,8.82
2023-02-02T07:38:50.968Z,7.25
2023-02-02T07:41:18.543Z,8.13
2023-02-02T07:43:49.605Z,8.57
2023-02-02T07:46:18.368Z,8.68
2023-02-02T07:48:45.759Z,8.10
2023-02-02T07:51:16.271Z,7.07
2023-02-02T07:53:45.924Z,8.18
2023-02-02T07:56:16.397Z,8.40
2023-02-02T07:58:44.677Z,8.20
2023-02-02T08:01:14.111Z,9.15
2023-02-02T08:03:43.369Z,7.68
2023-02-02T08:06:15.293Z,12.52
2023-02-02T08:08:42.978Z,20.50
2023-02-02T08:11:12.429Z,19.05
2023-02-02T08:13:40.805Z,16.40
2023-02-02T08:16:08.988Z,14.15
2023-02-02T08:18:37.356Z,13.52
2023-02-02T08:21:07.130Z,10.95
2023-02-02T08:23:34.807Z,9.70
2023-02-02T08:26:17.254Z,9.45
2023-02-02T08:28:47.524Z,8.13
2023-02-02T08:31:21.752Z,7.82
2023-02-02T08:33:49.991Z,7.32
2023-02-02T08:36:20.362Z,7.25
2023-02-02T08:38:48.603Z,6.82
2023-02-02T08:41:18.997Z,7.53
2023-02-02T08:43:46.775Z,7.63
2023-02-02T08:46:16.973Z,7.32
2023-02-02T08:48:45.242Z,8.05
2023-02-02T08:51:15.831Z,6.57
2023-02-02T08:53:44.220Z,6.85
2023-02-02T08:56:16.315Z,7.20
2023-02-02T08:58:52.762Z,14.93
2023-02-02T09:01:28.475Z,18.42
2023-02-02T09:04:01.673Z,10.70
2023-02-02T09:06:40.655Z,9.57
2023-02-02T09:09:10.071Z,7.95
2023-02-02T09:11:37.454Z,8.63
2023-02-02T09:14:06.961Z,8.25
2023-02-02T09:16:36.290Z,7.68
2023-02-02T09:19:04.717Z,8.88
2023-02-02T09:21:37.399Z,7.93
2023-02-02T09:24:10.390Z,8.45
2023-02-02T09:26:39.443Z,7.25
2023-02-02T09:29:08.629Z,8.05
2023-02-02T09:31:38.110Z,6.50
2023-02-02T09:34:07.950Z,6.88
2023-02-02T09:36:35.924Z,6.60
2023-02-02T09:39:04.270Z,6.10
2023-02-02T09:41:37.906Z,5.80
2023-02-02T09:44:33.309Z,5.32
2023-02-02T09:47:12.217Z,5.10
2023-02-02T09:50:04.703Z,5.47
2023-02-02T09:52:39.503Z,4.75
2023-02-02T09:55:38.039Z,5.97
2023-02-02T09:58:11.257Z,4.55
2023-02-02T10:00:44.679Z,4.60
2023-02-02T10:06:21.129Z,4.50
2023-02-02T10:08:54.414Z,4.13
2023-02-02T10:11:28.238Z,4.65
2023-02-02T10:14:02.870Z,4.30
2023-02-02T10:16:35.565Z,4.07
2023-02-02T10:19:06.585Z,3.83
2023-02-02T10:21:53.278Z,4.43
2023-02-02T10:24:24.616Z,3.90
2023-02-02T10:27:09.238Z,3.95
2023-02-02T10:30:05.264Z,4.70
2023-02-02T10:32:48.000Z,3.97
2023-02-02T10:35:53.765Z,4.03
2023-02-02T10:38:33.021Z,3.55
2023-02-02T10:41:07.481Z,3.20
2023-02-02T10:44:11.064Z,3.28
2023-02-02T10:46:47.200Z,3.05
2023-02-02T10:49:33.667Z,4.07
2023-02-02T10:52:16.393Z,3.63
2023-02-02T10:54:57.243Z,2.92
2023-02-02T10:57:33.395Z,2.63
2023-02-02T11:00:32.758Z,2.92
2023-02-02T11:03:04.921Z,3.20
2023-02-02T11:05:50.747Z,2.33
2023-02-02T11:08:46.578Z,2.40
2023-02-02T11:11:28.650Z,2.40
2023-02-02T11:14:09.167Z,2.67
2023-02-02T11:16:43.652Z,2.38
2023-02-02T11:19:17.805Z,2.33
2023-02-02T11:24:30.564Z,1.95
2023-02-02T11:27:17.249Z,2.13
2023-02-02T11:29:52.209Z,2.40
2023-02-02T11:32:35.264Z,2.10
2023-02-02T11:35:02.465Z,2.65
2023-02-02T11:37:30.312Z,2.22
2023-02-02T11:40:24.858Z,2.65
2023-02-02T11:42:53.498Z,2.70
2023-02-02T11:45:32.917Z,2.03
2023-02-02T11:48:14.113Z,2.55
2023-02-02T11:50:48.317Z,2.20
2023-02-02T11:53:35.015Z,1.90
2023-02-02T11:56:10.389Z,2.30
2023-02-02T11:58:49.518Z,2.53
2023-02-02T12:01:26.037Z,2.70
2023-02-02T12:03:56.930Z,2.05
2023-02-02T12:06:26.727Z,2.20
2023-02-02T12:08:58.649Z,2.60
2023-02-02T12:11:41.599Z,2.30
2023-02-02T12:14:24.252Z,2.08
2023-02-02T12:16:53.941Z,2.28
2023-02-02T12:19:32.425Z,2.25
2023-02-02T12:22:22.324Z,2.92
2023-02-02T12:25:09.835Z,1.92
2023-02-02T12:27:51.055Z,2.65
2023-02-02T12:30:32.147Z,2.78
2023-02-02T12:33:23.025Z,2.60
2023-02-02T12:35:59.867Z,2.20
2023-02-02T12:38:46.310Z,3.08
2023-02-02T12:42:01.857Z,2.55
2023-02-02T12:44:34.721Z,4.50
2023-02-02T12:47:26.477Z,3.00
2023-02-02T12:50:23.925Z,2.67
2023-02-02T12:53:02.988Z,3.08
2023-02-02T12:55:45.361Z,2.83
2023-02-02T12:58:21.736Z,2.83
2023-02-02T13:01:07.239Z,3.15
2023-02-02T13:04:12.932Z,2.85
2023-02-02T13:06:58.801Z,2.90
2023-02-02T13:09:36.149Z,2.78
2023-02-02T13:12:09.527Z,3.03
2023-02-02T13:14:49.780Z,2.63
2023-02-02T13:17:34.240Z,2.83
2023-02-02T13:20:06.105Z,2.60
2023-02-02T13:22:43.601Z,3.10
2023-02-02T13:25:27.571Z,2.45
2023-02-02T13:27:55.801Z,2.70
2023-02-02T13:30:32.245Z,3.25
2023-02-02T13:33:03.948Z,2.70
2023-02-02T13:36:10.477Z,2.85
2023-02-02T13:38:42.432Z,2.65
2023-02-02T13:41:13.754Z,2.80
2023-02-02T13:43:59.784Z,2.65
2023-02-02T13:46:50.972Z,2.17
2023-02-02T13:49:25.149Z,2.60
2023-02-02T13:52:01.892Z,2.00
2023-02-02T13:54:55.638Z,3.17
2023-02-02T13:57:48.752Z,2.67
2023-02-02T14:00:25.779Z,2.70
2023-02-02T14:03:00.216Z,2.80
2023-02-02T14:05:33.841Z,2.05
2023-02-02T14:08:08.632Z,2.72
2023-02-02T14:10:40.441Z,2.13
2023-02-02T14:13:37.367Z,2.63
2023-02-02T14:16:08.028Z,2.80
2023-02-02T14:18:51.277Z,2.70
2023-02-02T14:21:33.761Z,3.03
2023-02-02T14:24:21.335Z,2.83
2023-02-02T14:26:57.216Z,2.88
2023-02-02T14:29:36.312Z,2.40
2023-02-02T14:32:09.024Z,3.10
2023-02-02T14:34:37.031Z,2.67
2023-02-02T14:37:29.239Z,3.25
2023-02-02T14:40:06.477Z,3.53
2023-02-02T14:43:10.393Z,2.55
2023-02-02T14:45:46.359Z,2.83
2023-02-02T14:48:19.232Z,2.75
2023-02-02T14:50:53.686Z,2.03
2023-02-02T14:53:24.206Z,2.50
2023-02-02T14:56:05.843Z,2.25
2023-02-02T14:58:52.147Z,2.40
2023-02-02T15:01:23.233Z,2.40
2023-02-02T15:04:18.795Z,2.38
2023-02-02T15:06:46.922Z,2.10
2023-02-02T15:09:33.852Z,2.17
2023-02-02T15:12:03.841Z,2.75
2023-02-02T15:15:32.386Z,3.40
2023-02-02T15:18:31.433Z,2.50
2023-02-02T15:21:02.045Z,2.95
2023-02-02T15:23:39.297Z,2.45
2023-02-02T15:26:08.822Z,2.58
2023-02-02T15:28:44.897Z,2.35
2023-02-02T15:31:17.853Z,2.45
2023-02-02T15:33:49.113Z,2.70
2023-02-02T15:36:26.535Z,2.50
2023-02-02T15:38:58.806Z,3.38
2023-02-02T15:41:32.943Z,2.75
2023-02-02T15:44:01.609Z,3.33
2023-02-02T15:46:33.063Z,2.60
2023-02-02T15:49:33.664Z,2.78
2023-02-02T15:52:10.847Z,2.95
2023-02-02T15:54:38.361Z,4.93
2023-02-02T15:57:37.432Z,4.60
2023-02-02T16:00:23.647Z,2.80
2023-02-02T16:03:05.915Z,3.47
2023-02-02T16:05:36.106Z,4.30
2023-02-02T16:08:12.505Z,4.35
2023-02-02T16:10:40.314Z,4.60
2023-02-02T16:13:07.468Z,3.50
2023-02-02T16:15:34.693Z,4.35
2023-02-02T16:18:15.667Z,3.25
2023-02-02T16:20:43.420Z,2.88
2023-02-02T16:23:33.599Z,3.42
2023-02-02T16:26:05.088Z,3.05
2023-02-02T16:28:32.942Z,3.28
2023-02-02T16:31:02.145Z,4.40
2023-02-02T16:33:41.802Z,5.57
2023-02-02T16:36:30.325Z,4.40
2023-02-02T16:39:01.204Z,4.30
2023-02-02T16:41:34.625Z,3.63
2023-02-02T16:44:39.938Z,5.70
2023-02-02T16:47:28.655Z,4.60
2023-02-02T16:50:18.301Z,5.63
2023-02-02T16:53:06.216Z,3.42
2023-02-02T16:55:49.405Z,3.72
2023-02-02T16:58:22.317Z,3.78
2023-02-02T17:01:15.449Z,3.38
2023-02-02T17:03:53.593Z,3.53
2023-02-02T17:06:51.859Z,3.30
2023-02-02T17:09:38.757Z,3.35
2023-02-02T17:12:35.030Z,5.97
2023-02-02T17:15:16.688Z,4.35
2023-02-02T17:17:46.172Z,4.47
2023-02-02T17:20:14.525Z,5.28
2023-02-02T17:22:44.478Z,10.43
2023-02-02T17:25:17.840Z,11.85
2023-02-02T17:30:18.961Z,8.85
2023-02-02T17:32:46.353Z,8.07
2023-02-02T17:35:29.709Z,4.57
2023-02-02T17:38:00.570Z,4.55
2023-02-02T17:40:27.869Z,5.88
2023-02-02T17:42:55.135Z,4.45
2023-02-02T17:45:34.361Z,3.92
2023-02-02T17:48:05.297Z,3.65
2023-02-02T17:50:34.215Z,4.20
2023-02-02T17:53:01.489Z,3.95
2023-02-02T17:55:32.677Z,3.40
2023-02-02T17:57:59.995Z,3.80
2023-02-02T18:00:31.067Z,4.38
2023-02-02T18:03:35.057Z,3.65
2023-02-02T18:06:02.635Z,3.50
2023-02-02T18:08:31.796Z,3.83
2023-02-02T18:10:59.695Z,3.53
2023-02-02T18:13:27.100Z,3.60
2023-02-02T18:15:56.294Z,5.45
2023-02-02T18:18:24.205Z,4.30
2023-02-02T18:20:51.595Z,5.03
2023-02-02T18:23:19.674Z,5.00
2023-02-02T18:25:47.026Z,4.13
2023-02-02T18:28:17.556Z,4.13
2023-02-02T18:30:47.202Z,4.50
2023-02-02T18:33:17.556Z,3.50
2023-02-02T18:35:46.402Z,4.45
2023-02-02T18:38:18.226Z,3.92
2023-02-02T18:40:45.651Z,11.93
2023-02-02T18:43:12.987Z,12.27
2023-02-02T18:45:40.368Z,14.95
2023-02-02T18:48:07.757Z,15.35
2023-02-02T18:50:35.873Z,14.95
2023-02-02T18:53:03.178Z,11.60
2023-02-02T18:55:31.281Z,11.05
2023-02-02T18:57:58.692Z,10.43
2023-02-02T19:00:25.929Z,9.30
2023-02-02T19:02:53.320Z,8.30
2023-02-02T19:05:39.100Z,10.07
2023-02-02T19:08:06.466Z,11.93
2023-02-02T19:10:33.717Z,11.40
2023-02-02T19:13:19.533Z,10.40
2023-02-02T19:15:49.529Z,11.95
2023-02-02T19:18:23.602Z,13.40
2023-02-02T19:20:52.825Z,11.55
2023-02-02T19:23:29.488Z,9.80
2023-02-02T19:25:59.067Z,10.93
2023-02-02T19:28:28.745Z,8.80
2023-02-02T19:31:00.726Z,7.85
2023-02-02T19:33:53.253Z,9.48
2023-02-02T19:36:29.254Z,9.10
2023-02-02T19:39:05.644Z,9.02
2023-02-02T19:41:34.287Z,9.60
2023-02-02T19:44:12.001Z,10.75
2023-02-02T19:46:44.875Z,10.77
2023-02-02T19:49:31.221Z,11.63
2023-02-02T19:51:59.215Z,14.48
2023-02-02T19:54:29.055Z,13.98
2023-02-02T19:57:06.833Z,16.33
2023-02-02T19:59:36.345Z,17.00
2023-02-02T20:02:35.574Z,14.77
2023-02-02T20:05:12.318Z,14.55
2023-02-02T20:07:40.572Z,13.70
2023-02-02T20:10:19.235Z,11.75
2023-02-02T20:12:47.225Z,11.43
2023-02-02T20:15:36.530Z,12.32
2023-02-02T20:18:18.668Z,12.10
2023-02-02T20:20:51.745Z,15.32
2023-02-02T20:23:43.568Z,18.27
2023-02-02T20:26:26.134Z,20.55
2023-02-02T20:28:57.005Z,20.02
2023-02-02T20:31:28.781Z,20.30
2023-02-02T20:33:58.172Z,20.27
2023-02-02T20:36:53.699Z,32.45
2023-02-02T20:39:41.782Z,34.70
2023-02-02T20:42:08.909Z,24.88
2023-02-02T20:44:36.635Z,18.25
2023-02-02T20:47:04.611Z,13.60
2023-02-02T20:49:32.081Z,13.75
2023-02-02T20:52:02.308Z,12.98
2023-02-02T20:54:30.789Z,13.80
2023-02-02T20:56:58.524Z,18.40
2023-02-02T20:59:26.091Z,17.35
2023-02-02T21:01:53.444Z,13.75
2023-02-02T21:04:21.547Z,14.40
2023-02-02T21:06:49.794Z,14.80
2023-02-02T21:09:17.469Z,16.60
2023-02-02T21:11:44.714Z,24.00
2023-02-02T21:14:12.015Z,28.67
2023-02-02T21:16:39.277Z,29.60
2023-02-02T21:19:06.835Z,28.83
2023-02-02T21:21:33.955Z,31.60
2023-02-02T21:24:01.563Z,27.73
2023-02-02T21:26:31.021Z,25.27
2023-02-02T21:28:59.063Z,25.38
2023-02-02T21:31:27.430Z,23.48
2023-02-02T21:33:55.065Z,21.40
2023-02-02T21:36:40.069Z,19.13
2023-02-02T21:39:26.006Z,17.85
2023-02-02T21:42:08.805Z,17.05
2023-02-02T21:44:41.149Z,15.57
2023-02-02T21:47:21.518Z,15.23
2023-02-02T21:49:48.646Z,14.23
2023-02-02T21:52:18.072Z,13.73
2023-02-02T21:54:46.363Z,13.38
2023-02-02T21:57:24.939Z,12.48
2023-02-02T21:59:57.765Z,12.45
2023-02-02T22:02:28.188Z,11.88
2023-02-02T22:04:59.355Z,12.52
2023-02-02T22:07:27.139Z,12.25
2023-02-02T22:09:55.871Z,11.85
2023-02-02T22:12:28.717Z,12.45
2023-02-02T22:15:01.606Z,14.50
2023-02-02T22:17:49.430Z,11.70
2023-02-02T22:20:16.958Z,13.55
2023-02-02T22:22:50.418Z,13.18
2023-02-02T22:27:51.197Z,15.40
2023-02-02T22:30:33.522Z,16.90
2023-02-02T22:33:00.894Z,15.00
2023-02-02T22:35:27.954Z,14.25
2023-02-02T22:37:55.208Z,13.23
2023-02-02T22:40:25.337Z,12.27
2023-02-02T22:42:55.117Z,11.02
2023-02-02T22:45:23.130Z,11.23
2023-02-02T22:47:50.737Z,12.13
2023-02-02T22:50:20.325Z,14.70
2023-02-02T22:52:47.872Z,20.60
2023-02-02T22:55:15.439Z,25.90
2023-02-02T22:57:42.561Z,32.03
2023-02-02T23:00:14.212Z,30.92
2023-02-02T23:02:42.272Z,30.33
2023-02-02T23:05:12.475Z,26.63
2023-02-02T23:07:40.448Z,29.25
2023-02-02T23:10:08.467Z,27.38
2023-02-02T23:12:35.546Z,29.77
2023-02-02T23:15:03.188Z,31.38
2023-02-02T23:17:32.163Z,30.25
2023-02-02T23:19:59.238Z,27.65
2023-02-02T23:22:26.634Z,25.17
2023-02-02T23:24:53.812Z,20.58
2023-02-02T23:27:20.951Z,16.10
2023-02-02T23:29:48.455Z,14.75
2023-02-02T23:32:15.799Z,16.02
2023-02-02T23:34:43.809Z,16.40
2023-02-02T23:37:11.087Z,16.88
2023-02-02T23:39:38.374Z,18.27
2023-02-02T23:42:05.579Z,16.80
2023-02-02T23:44:32.856Z,17.08
2023-02-02T23:47:02.204Z,16.15
2023-02-02T23:49:31.713Z,18.08
2023-02-02T23:51:59.019Z,19.50
2023-02-02T23:54:27.599Z,18.65
2023-02-02T23:56:54.716Z,19.10
2023-02-02T23:59:21.867Z,16.65
